Time;durP1;ratioP1;P1;durP2;ratioP2;P2;SDS_P1;SDS_P2;PMS_P1;PMS_P2;Temp;Humidity;BMP_temperature;BMP_pressure;BME280_temperature;BME280_humidity;BME280_pressure;Samples;Min_cycle;Max_cycle;Signal;HPM_P1;HPM_P2
2022/05/02 00:01:58;;;;;;;7.35;5.30;;;;;;;6.38;100.00;102318.84;4981827;28;20046;-84
2022/05/02 00:04:27;;;;;;;6.05;5.45;;;;;;;6.34;100.00;102316.03;4930396;28;20061;-86
2022/05/02 00:06:56;;;;;;;5.72;4.93;;;;;;;6.29;100.00;102317.53;4978214;28;20038;-84
2022/05/02 00:09:24;;;;;;;6.03;4.80;;;;;;;6.25;100.00;102312.16;4972577;28;20053;-84
2022/05/02 00:11:53;;;;;;;4.90;4.47;;;;;;;6.24;100.00;102305.16;4978758;28;20058;-84
2022/05/02 00:14:21;;;;;;;7.90;5.57;;;;;;;6.24;100.00;102305.16;4960611;28;20507;-84
2022/05/02 00:16:49;;;;;;;6.10;5.32;;;;;;;6.23;100.00;102302.47;4975130;28;20629;-84
2022/05/02 00:19:18;;;;;;;6.72;5.47;;;;;;;6.21;100.00;102305.00;4975022;28;20039;-84
2022/05/02 00:21:46;;;;;;;6.10;5.45;;;;;;;6.18;100.00;102312.75;4989483;28;20260;-84
2022/05/02 00:24:15;;;;;;;9.07;5.70;;;;;;;6.15;100.00;102301.22;4971575;28;20042;-84
2022/05/02 00:26:43;;;;;;;6.15;5.32;;;;;;;6.11;100.00;102299.31;4969073;28;20255;-84
2022/05/02 00:29:12;;;;;;;6.45;4.90;;;;;;;6.06;100.00;102296.47;4974122;28;20046;-84
2022/05/02 00:31:40;;;;;;;8.25;5.30;;;;;;;6.03;100.00;102293.69;4971627;28;20034;-84
2022/05/02 00:34:09;;;;;;;5.50;5.07;;;;;;;6.01;100.00;102293.66;4943449;28;20066;-84
2022/05/02 00:36:37;;;;;;;7.70;5.20;;;;;;;5.98;100.00;102290.91;4988483;28;20463;-84
2022/05/02 00:39:06;;;;;;;6.57;5.32;;;;;;;5.97;100.00;102290.81;4998733;28;20496;-84
2022/05/02 00:41:34;;;;;;;8.00;5.00;;;;;;;5.93;100.00;102286.25;4982297;28;20042;-84
2022/05/02 00:44:03;;;;;;;6.57;4.68;;;;;;;5.90;100.00;102283.47;4992092;28;20050;-84
2022/05/02 00:46:33;;;;;;;9.88;4.97;;;;;;;5.86;100.00;102280.75;4973931;28;20061;-84
2022/05/02 00:49:01;;;;;;;5.90;5.38;;;;;;;5.83;100.00;102279.72;4978969;28;20042;-84
2022/05/02 00:51:30;;;;;;;9.60;5.93;;;;;;;5.82;100.00;102288.38;4975513;28;20400;-84
2022/05/02 00:53:58;;;;;;;7.38;5.70;;;;;;;5.78;100.00;102276.88;4994334;28;20403;-84
2022/05/02 00:56:26;;;;;;;5.40;4.50;;;;;;;5.75;100.00;102273.25;4968871;28;20416;-85
2022/05/02 00:58:55;;;;;;;7.45;4.93;;;;;;;5.72;100.00;102271.34;4945959;28;20271;-84
2022/05/02 01:01:23;;;;;;;6.35;5.50;;;;;;;5.70;100.00;102279.97;4973006;23;20050;-75
2022/05/02 01:03:52;;;;;;;5.88;5.28;;;;;;;5.67;100.00;102280.69;5004155;28;20057;-74
2022/05/02 01:09:08;;;;;;;5.20;4.78;;;;;;;5.60;100.00;102276.03;4993278;28;20040;-74
2022/05/02 01:11:36;;;;;;;9.80;5.38;;;;;;;5.58;100.00;102282.91;5029154;28;20042;-74
2022/05/02 01:14:08;;;;;;;6.30;5.15;;;;;;;5.55;100.00;102277.53;5016147;28;20268;-74
2022/05/02 01:16:36;;;;;;;6.03;4.80;;;;;;;5.50;100.00;102266.88;5002415;28;20378;-74
2022/05/02 01:19:05;;;;;;;8.85;5.38;;;;;;;5.47;100.00;102270.22;5006472;28;20037;-74
2022/05/02 01:21:34;;;;;;;6.82;5.53;;;;;;;5.46;100.00;102268.44;5010967;28;20525;-74
2022/05/02 01:24:04;;;;;;;5.57;4.63;;;;;;;5.43;100.00;102278.75;5006225;28;20045;-74
2022/05/02 01:26:32;;;;;;;8.52;5.05;;;;;;;5.40;100.00;102269.88;4978405;28;20552;-74
2022/05/02 01:29:01;;;;;;;11.30;6.20;;;;;;;5.38;100.00;102272.41;4999257;28;20046;-74
2022/05/02 01:31:29;;;;;;;8.43;5.50;;;;;;;5.36;100.00;102266.22;4985834;28;20042;-74
2022/05/02 01:34:00;;;;;;;7.28;5.10;;;;;;;5.36;100.00;102270.56;4971896;28;20049;-74
2022/05/02 01:36:28;;;;;;;7.68;5.50;;;;;;;5.33;100.00;102268.69;5012614;28;20050;-74
2022/05/02 01:38:57;;;;;;;8.50;5.88;;;;;;;5.31;100.00;102262.47;5008233;28;20054;-74
2022/05/02 01:41:25;;;;;;;9.00;5.55;;;;;;;5.31;100.00;102266.81;4993078;28;20346;-74
2022/05/02 01:43:54;;;;;;;8.55;5.50;;;;;;;5.27;100.00;102271.00;5008237;28;20045;-74
2022/05/02 01:46:22;;;;;;;9.63;5.25;;;;;;;5.25;100.00;102267.41;4999088;28;20682;-74
2022/05/02 01:48:51;;;;;;;10.50;5.70;;;;;;;5.22;100.00;102267.28;4986809;28;20033;-74
2022/05/02 01:51:19;;;;;;;6.30;5.68;;;;;;;5.20;100.00;102263.72;5008128;28;20254;-74
2022/05/02 01:53:48;;;;;;;12.32;5.82;;;;;;;5.18;100.00;102265.31;5010922;28;20046;-74
2022/05/02 01:56:16;;;;;;;6.78;5.85;;;;;;;5.15;100.00;102263.47;4971516;28;20157;-74
2022/05/02 01:58:44;;;;;;;8.38;6.03;;;;;;;5.14;100.00;102260.78;5002184;28;20057;-74
2022/05/02 02:01:13;;;;;;;8.68;6.35;;;;;;;5.13;100.00;102257.28;5006233;28;20045;-74
2022/05/02 02:03:41;;;;;;;10.80;6.03;;;;;;;5.12;100.00;102257.22;4938182;28;20054;-74
2022/05/02 02:06:10;;;;;;;9.88;6.22;;;;;;;5.10;100.00;102259.75;5003490;28;20267;-74
2022/05/02 02:08:39;;;;;;;6.78;5.80;;;;;;;5.07;100.00;102255.28;4990002;28;20525;-74
2022/05/02 02:11:09;;;;;;;6.43;5.88;;;;;;;5.06;100.00;102256.06;4970311;28;20404;-74
2022/05/02 02:13:38;;;;;;;8.88;6.13;;;;;;;5.04;100.00;102249.88;4957817;28;20046;-74
2022/05/02 02:16:13;;;;;;;7.28;6.50;;;;;;;5.03;100.00;102249.84;4985104;28;20259;-74
2022/05/02 02:18:42;;;;;;;6.65;5.78;;;;;;;5.01;100.00;102246.22;4977569;28;20046;-74
2022/05/02 02:21:11;;;;;;;8.68;6.47;;;;;;;4.97;100.00;102246.91;4976924;28;20615;-74
2022/05/02 02:23:41;;;;;;;7.10;6.40;;;;;;;4.95;100.00;102245.94;4974110;28;20053;-74
2022/05/02 02:26:10;;;;;;;7.05;6.10;;;;;;;4.93;100.00;102253.69;4969917;28;20046;-74
2022/05/02 02:28:39;;;;;;;7.88;6.63;;;;;;;4.93;100.00;102245.84;4989624;28;20042;-74
2022/05/02 02:31:07;;;;;;;11.65;6.95;;;;;;;4.92;100.00;102257.16;4967033;28;20292;-74
2022/05/02 02:33:37;;;;;;;9.98;7.07;;;;;;;4.89;100.00;102256.97;5008091;28;20045;-73
2022/05/02 02:36:05;;;;;;;11.02;8.38;;;;;;;4.88;100.00;102249.97;4944918;28;20268;-74
2022/05/02 02:38:37;;;;;;;10.50;7.75;;;;;;;4.86;100.00;102247.28;4985905;28;20038;-74
2022/05/02 02:41:05;;;;;;;8.25;7.25;;;;;;;4.83;100.00;102252.34;4969876;28;20061;-74
2022/05/02 02:43:33;;;;;;;8.32;7.50;;;;;;;4.82;100.00;102244.44;4989483;28;20475;-74
2022/05/02 02:46:02;;;;;;;8.50;7.68;;;;;;;4.79;100.00;102258.25;4969899;28;20038;-74
2022/05/02 02:48:30;;;;;;;8.52;7.72;;;;;;;4.76;100.00;102247.66;4972872;28;20042;-74
2022/05/02 02:51:01;;;;;;;9.82;8.73;;;;;;;4.74;100.00;102245.78;4946190;28;20042;-74
2022/05/02 02:53:30;;;;;;;9.82;7.80;;;;;;;4.68;100.00;102244.66;4991365;28;20069;-74
2022/05/02 02:55:58;;;;;;;8.55;7.20;;;;;;;4.65;100.00;102251.44;4987936;28;20054;-74
2022/05/02 02:58:27;;;;;;;9.85;7.20;;;;;;;4.63;100.00;102240.03;4974842;28;20050;-74
2022/05/02 03:00:55;;;;;;;7.85;7.05;;;;;;;4.60;100.00;102234.66;5004495;28;20250;-74
2022/05/02 03:03:24;;;;;;;12.43;7.80;;;;;;;4.57;100.00;102243.22;4989080;28;20128;-74
2022/05/02 03:06:01;;;;;;;8.15;7.35;;;;;;;4.56;100.00;102227.50;4974390;28;20046;-74
2022/05/02 03:08:33;;;;;;;12.02;8.57;;;;;;;4.54;100.00;102231.72;4958146;28;20050;-74
2022/05/02 03:11:02;;;;;;;9.02;7.40;;;;;;;4.50;100.00;102230.72;4986507;28;20053;-74
2022/05/02 03:13:31;;;;;;;9.13;7.07;;;;;;;4.46;100.00;102233.97;4989100;28;20437;-74
2022/05/02 03:16:00;;;;;;;9.57;7.10;;;;;;;4.44;100.00;102227.78;4986181;28;20067;-74
2022/05/02 03:18:29;;;;;;;10.05;7.70;;;;;;;4.43;100.00;102228.59;4973607;28;20057;-74
2022/05/02 03:20:57;;;;;;;9.15;8.05;;;;;;;4.41;100.00;102228.53;4939425;28;20042;-74
2022/05/02 03:23:26;;;;;;;9.30;8.18;;;;;;;4.42;100.00;102232.00;4985790;28;20514;-74
2022/05/02 03:25:56;;;;;;;11.20;8.18;;;;;;;4.39;100.00;102230.16;4987242;28;20038;-74
2022/05/02 03:28:24;;;;;;;8.73;7.82;;;;;;;4.41;100.00;102240.69;4973523;28;20402;-74
2022/05/02 03:30:54;;;;;;;8.75;7.53;;;;;;;4.39;100.00;102227.56;4988252;28;20042;-74
2022/05/02 03:33:22;;;;;;;8.30;7.47;;;;;;;4.37;100.00;102226.59;4988482;28;20152;-74
2022/05/02 03:35:50;;;;;;;8.10;7.32;;;;;;;4.37;100.00;102229.19;4997884;28;20495;-74
2022/05/02 03:38:19;;;;;;;8.55;7.00;;;;;;;4.36;100.00;102227.38;4940453;28;20138;-74
2022/05/02 03:40:48;;;;;;;9.32;7.07;;;;;;;4.36;100.00;102235.22;4934996;28;20076;-74
2022/05/02 03:43:16;;;;;;;9.57;7.43;;;;;;;4.36;100.00;102231.72;5004105;28;20347;-74
2022/05/02 03:45:45;;;;;;;9.30;7.90;;;;;;;4.35;100.00;102222.06;4974237;28;20041;-74
2022/05/02 03:48:13;;;;;;;9.45;8.32;;;;;;;4.34;100.00;102229.03;4964999;28;20050;-74
2022/05/02 03:50:41;;;;;;;9.57;8.60;;;;;;;4.34;100.00;102228.13;4989467;28;20160;-74
2022/05/02 03:53:10;;;;;;;8.65;7.40;;;;;;;4.33;100.00;102228.94;4942412;28;20634;-74
2022/05/02 03:55:39;;;;;;;10.90;8.75;;;;;;;4.34;100.00;102230.75;4973523;28;20042;-74
2022/05/02 03:58:07;;;;;;;10.48;7.55;;;;;;;4.32;100.00;102227.16;4937006;28;20406;-74
2022/05/02 04:00:36;;;;;;;9.00;8.07;;;;;;;4.32;100.00;102238.50;5006369;28;20054;-74
2022/05/02 04:03:04;;;;;;;11.25;8.40;;;;;;;4.31;100.00;102226.28;4967725;28;20168;-74
2022/05/02 04:05:33;;;;;;;11.63;8.82;;;;;;;4.30;100.00;102227.97;4973123;28;20050;-74
2022/05/02 04:08:01;;;;;;;9.07;8.13;;;;;;;4.30;100.00;102234.91;4952856;28;20046;-74
2022/05/02 04:10:29;;;;;;;11.88;8.60;;;;;;;4.29;100.00;102236.63;4967930;28;20510;-74
2022/05/02 04:12:58;;;;;;;14.13;8.93;;;;;;;4.27;100.00;102225.22;4969751;28;20044;-74
2022/05/02 04:15:26;;;;;;;9.38;8.25;;;;;;;4.27;100.00;102235.66;4988452;28;20052;-74
2022/05/02 04:17:56;;;;;;;10.07;8.57;;;;;;;4.28;100.00;102237.44;5004248;28;20046;-74
2022/05/02 04:20:24;;;;;;;12.32;7.90;;;;;;;4.31;100.00;102239.31;4955416;28;20050;-74
2022/05/02 04:22:53;;;;;;;9.95;8.88;;;;;;;4.33;100.00;102240.28;4975279;28;20041;-74
2022/05/02 04:25:21;;;;;;;10.23;7.97;;;;;;;4.35;100.00;102238.66;4976500;28;20422;-74
2022/05/02 04:27:50;;;;;;;10.40;7.70;;;;;;;4.36;100.00;102236.94;5002931;28;20052;-74
2022/05/02 04:30:18;;;;;;;9.45;7.97;;;;;;;4.39;100.00;102252.75;4980406;28;20046;-74
2022/05/02 04:32:46;;;;;;;9.18;8.27;;;;;;;4.42;100.00;102238.16;4990281;28;20054;-74
2022/05/02 04:35:15;;;;;;;11.07;8.98;;;;;;;4.46;100.00;102255.75;4962405;28;20042;-74
2022/05/02 04:37:44;;;;;;;12.27;9.35;;;;;;;4.51;100.00;102242.94;5006736;28;20406;-74
2022/05/02 04:40:12;;;;;;;11.27;9.27;;;;;;;4.54;100.00;102250.94;4981633;28;20160;-74
2022/05/02 04:42:41;;;;;;;11.02;8.68;;;;;;;4.57;100.00;102248.44;4988709;28;20490;-74
2022/05/02 04:45:09;;;;;;;11.50;8.10;;;;;;;4.62;100.00;102249.59;4968763;28;20054;-74
2022/05/02 04:47:38;;;;;;;10.55;8.65;;;;;;;5.02;100.00;102243.69;5006410;28;20052;-74
2022/05/02 04:50:06;;;;;;;9.32;7.78;;;;;;;5.70;100.00;102241.63;4988386;28;20236;-74
2022/05/02 04:52:35;;;;;;;9.70;7.82;;;;;;;6.40;100.00;102246.47;4990345;28;20041;-74
2022/05/02 04:55:04;;;;;;;8.27;7.57;;;;;;;7.07;100.00;102236.09;4971797;28;20513;-74
2022/05/02 04:57:32;;;;;;;9.45;6.55;;;;;;;7.66;100.00;102241.88;4968458;28;20049;-74
2022/05/02 05:00:01;;;;;;;6.93;6.28;;;;;;;8.02;100.00;102237.09;5000089;28;20033;-74
2022/05/02 05:02:30;;;;;;;11.70;6.07;;;;;;;8.26;100.00;102238.78;4987108;28;20066;-74
2022/05/02 05:04:59;;;;;;;6.35;5.65;;;;;;;8.27;100.00;102241.44;4981037;28;20507;-74
2022/05/02 05:07:28;;;;;;;7.28;5.72;;;;;;;8.22;100.00;102239.50;4967507;28;20046;-74
2022/05/02 05:09:56;;;;;;;6.85;6.15;;;;;;;8.31;100.00;102251.22;4936738;28;20058;-74
2022/05/02 05:12:40;;;;;;;6.55;5.82;;;;;;;8.78;100.00;102238.84;4998076;28;20053;-74
2022/05/02 05:18:42;;;;;;;7.25;5.40;;;;;;;9.55;100.00;102230.72;4985701;28;20049;-74
2022/05/02 05:21:23;;;;;;;5.10;4.60;;;;;;;10.22;100.00;102240.47;4993833;28;20426;-74
2022/05/02 05:24:19;;;;;;;4.93;4.50;;;;;;;10.77;100.00;102239.28;4977402;28;20045;-74
2022/05/02 05:27:23;;;;;;;5.78;4.65;;;;;;;10.91;100.00;102229.09;4952669;28;20291;-74
2022/05/02 05:30:06;;;;;;;6.63;5.88;;;;;;;11.23;100.00;102224.56;5001433;28;20387;-74
2022/05/02 05:32:46;;;;;;;8.10;5.32;;;;;;;11.80;100.00;102231.03;4983145;28;20073;-74
2022/05/02 05:35:23;;;;;;;7.95;4.28;;;;;;;12.43;100.00;102224.31;5002636;28;20045;-74
2022/05/02 05:38:07;;;;;;;8.07;4.53;;;;;;;12.84;100.00;102216.19;4942210;28;20038;-74
2022/05/02 05:40:42;;;;;;;6.20;4.80;;;;;;;12.82;100.00;102217.03;4982379;28;20056;-75
2022/05/02 05:43:35;;;;;;;6.80;4.35;;;;;;;12.79;100.00;102219.63;4988701;28;20038;-75
2022/05/02 05:46:41;;;;;;;5.07;4.55;;;;;;;12.56;100.00;102216.59;4967878;28;20054;-74
2022/05/02 05:49:31;;;;;;;6.70;5.78;;;;;;;12.59;100.00;102214.91;4993040;28;20045;-74
2022/05/02 05:52:18;;;;;;;4.72;3.60;;;;;;;12.76;100.00;102211.63;4987998;28;20163;-74
2022/05/02 05:55:20;;;;;;;4.32;3.92;;;;;;;12.95;100.00;102223.38;4987909;28;20054;-75
2022/05/02 05:58:02;;;;;;;4.18;3.72;;;;;;;13.08;100.00;102214.78;4935639;28;20271;-75
2022/05/02 06:00:34;;;;;;;6.00;3.40;;;;;;;13.33;98.36;102216.06;4974897;28;20486;-75
2022/05/02 06:03:13;;;;;;;5.30;3.75;;;;;;;13.38;95.41;102211.72;4981308;28;20046;-75
2022/05/02 06:05:44;;;;;;;3.40;3.10;;;;;;;13.29;94.52;102211.56;4980994;28;20057;-75
2022/05/02 06:08:22;;;;;;;5.00;3.15;;;;;;;13.30;92.85;102212.44;4985379;28;20125;-75
2022/05/02 06:10:51;;;;;;;5.47;3.25;;;;;;;13.37;91.11;102217.00;5005564;28;20575;-75
2022/05/02 06:13:22;;;;;;;4.10;3.78;;;;;;;13.24;90.03;102211.47;4951721;28;20606;-75
2022/05/02 06:19:00;;;;;;;5.53;3.47;;;;;;;13.01;89.22;102216.44;4988004;28;19929;-75
2022/05/02 06:21:29;;;;;;;4.70;3.53;;;;;;;12.82;88.25;102214.38;4977392;28;20080;-75
2022/05/02 06:24:04;;;;;;;3.95;3.30;;;;;;;12.58;87.84;102213.13;4994823;28;20030;-75
2022/05/02 06:26:32;;;;;;;3.90;3.60;;;;;;;12.38;88.33;102215.44;5004483;28;20074;-75
2022/05/02 06:29:02;;;;;;;7.80;5.13;;;;;;;12.21;89.12;102217.78;4951675;28;20517;-74
2022/05/02 06:31:31;;;;;;;7.82;4.20;;;;;;;12.07;89.53;102228.06;4935511;28;20308;-76
2022/05/02 06:34:02;;;;;;;6.38;4.35;;;;;;;12.06;89.48;102215.72;4968204;28;20033;-74
2022/05/02 06:37:08;;;;;;;4.65;2.95;;;;;;;12.08;89.80;102219.28;4979684;28;20038;-74
2022/05/02 06:40:30;;;;;;;5.18;2.88;;;;;;;12.08;87.32;102221.94;4972089;28;20190;-74
2022/05/02 06:43:16;;;;;;;5.78;3.00;;;;;;;12.08;89.01;102227.22;4963085;28;20066;-74
2022/05/02 06:46:08;;;;;;;5.22;3.70;;;;;;;12.09;89.49;102221.06;4971011;28;20065;-73
2022/05/02 06:48:42;;;;;;;4.25;2.33;;;;;;;12.07;88.74;102220.13;4946866;28;20611;-73
2022/05/02 06:51:22;;;;;;;5.63;3.10;;;;;;;12.00;88.24;102220.91;4987853;28;20054;-74
2022/05/02 06:54:03;;;;;;;3.10;2.50;;;;;;;11.95;87.92;102222.56;4983079;28;20030;-73
2022/05/02 06:56:50;;;;;;;3.97;2.30;;;;;;;11.93;87.86;102221.66;4993153;28;20237;-74
2022/05/02 07:00:00;;;;;;;6.53;2.72;;;;;;;11.90;88.05;102216.28;4967586;28;20029;-74
2022/05/02 07:02:41;;;;;;;4.43;2.58;;;;;;;11.88;87.73;102218.84;4971942;28;20288;-74
2022/05/02 07:05:18;;;;;;;;;;;;;;;11.86;86.54;102222.34;4978649;28;20053;-74
2022/05/02 07:08:01;;;;;;;4.07;2.13;;;;;;;11.82;86.34;102221.38;4958445;28;20234;-74
2022/05/02 07:10:34;;;;;;;10.32;2.45;;;;;;;11.85;85.86;102224.09;4959851;28;20039;-74
2022/05/02 07:13:24;;;;;;;3.45;2.40;;;;;;;11.91;87.14;102223.38;4985202;28;20388;-74
2022/05/02 07:16:21;;;;;;;2.60;2.00;;;;;;;12.01;86.82;102219.16;4940741;28;20039;-74
2022/05/02 07:19:28;;;;;;;4.07;1.95;;;;;;;12.15;84.31;102222.03;4982364;28;20046;-74
2022/05/02 07:22:01;;;;;;;3.55;2.58;;;;;;;12.25;86.57;102219.59;4957834;28;20055;-74
2022/05/02 07:24:57;;;;;;;3.03;2.15;;;;;;;12.43;85.40;102213.75;4965064;28;20591;-74
2022/05/02 07:27:58;;;;;;;2.17;1.83;;;;;;;12.64;85.50;102217.63;4971697;28;20039;-74
2022/05/02 07:30:26;;;;;;;2.13;1.83;;;;;;;12.80;84.22;102218.78;4938050;28;20057;-76
2022/05/02 07:32:55;;;;;;;2.35;2.00;;;;;;;12.88;82.64;102225.06;4977794;28;20054;-75
2022/05/02 07:35:26;;;;;;;2.15;1.92;;;;;;;12.99;82.01;102219.94;4947608;28;20046;-74
2022/05/02 07:37:57;;;;;;;2.22;2.03;;;;;;;12.96;80.67;102222.53;4951742;28;20043;-74
2022/05/02 07:40:26;;;;;;;3.83;2.65;;;;;;;12.87;79.64;102216.25;4941823;28;20043;-74
2022/05/02 07:42:56;;;;;;;2.97;1.90;;;;;;;12.85;80.02;102228.56;4979852;28;20042;-75
2022/05/02 07:45:28;;;;;;;2.47;1.98;;;;;;;12.87;80.47;102224.19;4947980;28;20491;-75
2022/05/02 07:48:00;;;;;;;4.32;2.00;;;;;;;12.82;79.32;102219.69;4960677;28;20039;-75
2022/05/02 07:50:31;;;;;;;3.38;2.20;;;;;;;12.83;78.71;102224.09;4979307;28;20047;-75
2022/05/02 07:52:59;;;;;;;5.60;2.00;;;;;;;12.85;79.37;102227.66;4973755;28;20050;-75
2022/05/02 07:55:31;;;;;;;5.72;2.22;;;;;;;12.80;78.42;102218.78;4928569;28;20156;-76
2022/05/02 07:58:01;;;;;;;2.58;2.10;;;;;;;12.82;78.92;102220.56;4954833;28;20411;-75
2022/05/02 08:00:30;;;;;;;2.30;2.10;;;;;;;12.88;79.11;102225.94;4946982;28;20673;-75
2022/05/02 08:02:58;;;;;;;3.50;2.40;;;;;;;12.94;78.46;102230.44;4952121;28;20049;-76
2022/05/02 08:05:28;;;;;;;4.75;2.80;;;;;;;12.98;78.52;102224.31;4998136;28;20038;-76
2022/05/02 08:08:12;;;;;;;4.88;2.45;;;;;;;13.04;78.07;102228.81;4961444;28;20506;-76
2022/05/02 08:10:50;;;;;;;6.22;2.35;;;;;;;13.05;76.17;102222.66;4990567;28;20041;-77
2022/05/02 08:13:40;;;;;;;4.68;3.17;;;;;;;13.04;75.24;102223.53;4990500;28;20057;-76
2022/05/02 08:16:24;;;;;;;2.67;2.47;;;;;;;13.05;76.37;102214.72;4981988;28;20049;-76
2022/05/02 08:19:03;;;;;;;4.65;2.80;;;;;;;13.08;76.00;102214.78;4970559;28;20053;-76
2022/05/02 08:27:15;;;;;;;4.32;2.55;;;;;;;13.08;75.66;102214.78;4987171;28;20054;-76
2022/05/02 08:28:03;;;;;;;6.00;3.17;;;;;;;13.24;76.19;102215.88;4997444;28;20387;-75
2022/05/02 08:31:02;;;;;;;4.68;3.03;;;;;;;13.31;75.32;102214.22;4964463;28;20041;-76
2022/05/02 08:33:32;;;;;;;4.50;2.83;;;;;;;13.32;75.04;102210.72;4953301;28;20054;-76
2022/05/02 08:36:17;;;;;;;4.57;3.67;;;;;;;13.29;74.04;102219.50;4971221;28;20042;-76
2022/05/02 08:39:00;;;;;;;5.43;2.97;;;;;;;13.27;74.26;102219.47;4981815;28;20240;-76
2022/05/02 08:41:28;;;;;;;5.88;3.50;;;;;;;13.32;74.17;102221.31;4966710;28;20034;-76
2022/05/02 08:43:57;;;;;;;6.20;3.45;;;;;;;13.36;74.16;102217.84;4964127;28;20668;-76
2022/05/02 08:46:53;;;;;;;7.75;4.47;;;;;;;13.36;73.31;102212.53;4978145;28;20033;-76
2022/05/02 08:50:00;;;;;;;5.15;3.88;;;;;;;13.43;72.11;102215.28;4959882;28;20050;-76
2022/05/02 08:52:47;;;;;;;4.20;3.78;;;;;;;13.45;73.03;102210.03;4993579;28;20030;-76
2022/05/02 08:55:42;;;;;;;6.05;3.40;;;;;;;13.48;72.70;102210.06;4989196;28;20047;-76
2022/05/02 08:59:01;;;;;;;7.38;3.78;;;;;;;13.60;73.05;102214.63;4992763;28;20046;-76
2022/05/02 09:01:58;;;;;;;4.93;3.72;;;;;;;13.70;73.10;102210.31;4951400;28;20061;-77
2022/05/02 09:04:33;;;;;;;12.60;3.90;;;;;;;13.79;73.39;102213.97;4982179;28;20061;-77
2022/05/02 09:07:23;;;;;;;7.35;4.35;;;;;;;13.87;72.69;102208.75;4972104;28;20499;-77
2022/05/02 09:10:23;;;;;;;7.32;4.28;;;;;;;13.97;69.43;102194.75;4990350;28;20061;-77
2022/05/02 09:13:16;;;;;;;5.82;4.78;;;;;;;14.07;71.20;102200.16;4989512;28;20549;-76
2022/05/02 09:16:02;;;;;;;5.05;4.00;;;;;;;14.13;70.38;102201.09;4995025;28;20050;-76
2022/05/02 09:19:02;;;;;;;8.50;5.80;;;;;;;14.17;70.91;102199.38;4997146;28;20054;-76
2022/05/02 09:21:55;;;;;;;5.53;3.80;;;;;;;14.21;69.35;102196.78;4956473;28;20039;-77
2022/05/02 09:24:32;;;;;;;4.85;4.32;;;;;;;14.29;69.02;102196.84;4991713;28;20394;-75
2022/05/02 09:27:31;;;;;;;4.72;4.03;;;;;;;14.33;69.82;102187.13;4979080;28;20041;-75
2022/05/02 09:30:15;;;;;;;5.97;4.95;;;;;;;14.39;67.58;102187.19;4978324;28;20583;-75
2022/05/02 09:33:06;;;;;;;6.63;4.93;;;;;;;14.42;67.68;102182.81;4997724;28;20042;-75
2022/05/02 09:35:51;;;;;;;5.00;4.50;;;;;;;14.48;67.26;102181.06;4985081;28;20054;-75
2022/05/02 09:38:27;;;;;;;8.38;5.32;;;;;;;14.53;67.88;102171.41;4976074;28;20074;-75
2022/05/02 09:41:40;;;;;;;5.80;4.57;;;;;;;14.54;65.70;102168.75;4991085;28;20216;-75
2022/05/02 09:50:56;;;;;;;6.00;5.28;;;;;;;14.62;65.20;102174.16;5005697;28;20049;-76
2022/05/02 09:53:27;;;;;;;6.85;5.57;;;;;;;14.70;65.20;102166.25;4990373;28;20053;-76
2022/05/02 09:59:09;;;;;;;10.38;5.47;;;;;;;14.81;66.20;102161.91;4999953;28;20284;-76
2022/05/02 10:02:14;;;;;;;6.95;5.70;;;;;;;14.90;65.36;102159.31;4969525;28;20674;-75
2022/05/02 10:04:59;;;;;;;5.68;4.93;;;;;;;15.05;62.06;102158.53;4972001;28;20058;-76
2022/05/02 10:07:28;;;;;;;5.47;4.95;;;;;;;15.03;63.16;102154.97;4964951;28;20156;-76
2022/05/02 10:10:04;;;;;;;11.13;5.55;;;;;;;15.09;63.68;102162.09;4964527;28;20053;-74
2022/05/02 10:12:47;;;;;;;7.30;5.28;;;;;;;15.15;62.98;102157.69;4994912;28;20046;-75
2022/05/02 10:15:16;;;;;;;8.20;5.13;;;;;;;15.15;63.39;102159.44;4985299;28;20042;-76
2022/05/02 10:17:58;;;;;;;7.80;5.00;;;;;;;15.16;64.76;102167.44;4990634;28;20372;-75
2022/05/02 10:21:00;;;;;;;7.50;4.82;;;;;;;15.24;63.34;102156.84;4972847;28;20139;-75
2022/05/02 10:24:02;;;;;;;5.43;4.93;;;;;;;15.29;61.98;102163.06;4937153;28;20034;-75
2022/05/02 10:26:49;;;;;;;10.90;5.72;;;;;;;15.38;62.65;102156.91;4975684;28;20050;-75
2022/05/02 10:29:27;;;;;;;5.60;5.10;;;;;;;15.37;60.52;102153.38;4972646;28;20153;-75
2022/05/02 10:32:05;;;;;;;6.32;4.68;;;;;;;15.38;61.34;102159.56;4974669;28;20054;-75
2022/05/02 10:34:37;;;;;;;12.88;6.65;;;;;;;15.39;60.45;102154.25;4988482;28;20077;-75
2022/05/02 10:37:07;;;;;;;8.60;5.18;;;;;;;15.43;60.58;102157.81;4971606;28;20765;-75
2022/05/02 10:39:38;;;;;;;5.60;5.07;;;;;;;15.34;61.09;102153.34;4953723;28;20073;-75
2022/05/02 10:42:10;;;;;;;6.03;4.93;;;;;;;15.33;61.30;102148.00;4959557;28;20051;-75
2022/05/02 10:45:01;;;;;;;6.38;4.80;;;;;;;15.35;59.57;102146.28;4960081;28;20073;-75
2022/05/02 10:47:59;;;;;;;7.88;5.22;;;;;;;15.51;61.94;102141.91;4968621;28;20855;-75
2022/05/02 10:50:36;;;;;;;4.95;4.22;;;;;;;15.66;61.99;102139.28;4971953;28;20491;-75
2022/05/02 10:53:18;;;;;;;7.63;4.85;;;;;;;15.77;60.66;102145.56;4968836;28;20099;-75
2022/05/02 10:56:09;;;;;;;5.50;4.90;;;;;;;15.84;60.25;102137.56;4955811;28;20042;-77
2022/05/02 10:58:43;;;;;;;4.93;4.53;;;;;;;15.93;61.16;102138.47;4958164;28;20066;-75
2022/05/02 11:01:24;;;;;;;5.38;4.88;;;;;;;15.96;61.31;102130.53;4935609;28;20283;-77
2022/05/02 11:04:14;;;;;;;6.30;4.97;;;;;;;15.91;61.08;102126.97;4957152;28;20059;-77
2022/05/02 11:07:08;;;;;;;9.57;5.05;;;;;;;15.94;60.90;102128.75;4962609;28;20610;-77
2022/05/02 11:09:55;;;;;;;6.95;4.82;;;;;;;16.04;61.87;102133.19;4969783;28;20350;-77
2022/05/02 11:12:31;;;;;;;6.18;4.70;;;;;;;16.12;62.31;102131.44;4983786;28;20053;-77
2022/05/02 11:15:24;;;;;;;5.43;4.72;;;;;;;16.22;60.38;102120.78;4976506;28;20046;-76
2022/05/02 11:18:04;;;;;;;5.47;4.80;;;;;;;16.28;59.82;102116.34;4950663;28;20054;-77
2022/05/02 11:20:54;;;;;;;7.80;5.35;;;;;;;16.30;60.36;102121.69;4956611;28;20061;-76
2022/05/02 11:23:40;;;;;;;7.82;4.97;;;;;;;16.27;61.11;102119.00;4966759;28;20049;-76
2022/05/02 11:26:37;;;;;;;6.45;4.53;;;;;;;16.21;60.16;102119.03;4949904;28;20431;-76
2022/05/02 11:29:27;;;;;;;7.75;4.32;;;;;;;16.07;62.45;102114.59;4981147;28;20615;-76
2022/05/02 11:32:19;;;;;;;4.65;4.35;;;;;;;16.00;61.59;102114.59;4947523;28;20978;-75
2022/05/02 11:35:04;;;;;;;6.00;4.97;;;;;;;16.01;60.20;102116.34;4974662;28;20049;-75
2022/05/02 11:37:33;;;;;;;9.57;5.05;;;;;;;15.95;61.45;102115.47;4985017;28;20054;-75
2022/05/02 11:40:06;;;;;;;5.10;4.57;;;;;;;15.91;61.00;102121.63;4976513;28;20046;-75
2022/05/02 11:42:41;;;;;;;6.28;4.75;;;;;;;15.81;59.65;102119.00;4952620;28;20500;-74
2022/05/02 11:45:17;;;;;;;7.28;4.85;;;;;;;15.71;59.67;102120.72;4979034;28;20157;-77
2022/05/02 11:47:53;;;;;;;5.80;4.88;;;;;;;15.63;60.97;102119.78;4953730;28;20058;-75
2022/05/02 11:50:24;;;;;;;6.47;4.57;;;;;;;15.64;62.22;102122.44;4973859;28;20491;-75
2022/05/02 11:52:59;;;;;;;5.55;5.07;;;;;;;15.75;61.27;102125.19;4952373;28;20407;-75
2022/05/02 11:55:30;;;;;;;6.03;4.82;;;;;;;15.72;61.85;102115.38;4976962;28;20051;-75
2022/05/02 11:58:07;;;;;;;5.07;4.18;;;;;;;15.74;62.03;102107.44;4957261;28;20062;-75
2022/05/02 12:00:37;;;;;;;7.65;4.80;;;;;;;15.83;61.90;102122.53;4948726;28;20374;-75
2022/05/02 12:03:18;;;;;;;6.20;4.82;;;;;;;15.86;61.68;102118.13;4967573;28;20060;-75
2022/05/02 12:05:52;;;;;;;6.60;4.88;;;;;;;15.89;61.92;102117.22;4971232;28;20479;-75
2022/05/02 12:08:35;;;;;;;4.97;4.32;;;;;;;15.92;62.95;102109.25;4980203;28;20072;-75
2022/05/02 12:11:07;;;;;;;8.07;5.03;;;;;;;16.00;62.23;102107.47;4931292;28;20053;-75
2022/05/02 12:13:42;;;;;;;7.97;4.32;;;;;;;16.07;61.81;102109.28;4991573;28;20385;-75
2022/05/02 12:16:15;;;;;;;8.15;5.25;;;;;;;16.05;60.72;102110.13;4978893;28;20065;-75
2022/05/02 12:18:53;;;;;;;7.05;5.03;;;;;;;16.04;60.28;102105.72;4962737;28;20042;-77
2022/05/02 12:21:22;;;;;;;4.65;3.92;;;;;;;16.08;61.18;102103.03;4959817;28;20073;-77
2022/05/02 12:23:52;;;;;;;6.32;4.97;;;;;;;16.16;60.79;102106.63;4970527;28;20049;-77
2022/05/02 12:26:25;;;;;;;5.73;4.70;;;;;;;16.23;60.63;102095.97;4958022;28;20835;-77
2022/05/02 12:29:00;;;;;;;7.15;4.65;;;;;;;16.30;60.36;102090.63;4971903;28;20049;-77